Time;durP1;ratioP1;P1;durP2;ratioP2;P2;SDS_P1;SDS_P2;PMS_P1;PMS_P2;Temp;Humidity;BMP_temperature;BMP_pressure;BME280_temperature;BME280_humidity;BME280_pressure;Samples;Min_cycle;Max_cycle;Signal;HPM_P1;HPM_P2
2022/04/23 00:02:00;;;;;;;10.48;2.00;;;;;;;;;;5028201;28;20037;-74
2022/04/23 00:04:25;;;;;;;15.15;2.78;;;;;;;;;;5043743;28;20036;-75
2022/04/23 00:06:51;;;;;;;12.13;1.63;;;;;;;;;;5045679;28;20029;-74
2022/04/23 00:09:16;;;;;;;14.13;2.15;;;;;;;;;;5040300;28;20099;-75
2022/04/23 00:11:43;;;;;;;16.55;2.17;;;;;;;;;;5042553;28;21875;-75
2022/04/23 00:14:09;;;;;;;12.70;2.28;;;;;;;;;;5038455;28;20488;-75
2022/04/23 00:16:35;;;;;;;9.82;1.98;;;;;;;;;;5028089;28;20112;-75
2022/04/23 00:19:01;;;;;;;17.58;2.78;;;;;;;;;;5047596;28;20116;-76
2022/04/23 00:21:26;;;;;;;19.65;2.55;;;;;;;;;;5028743;28;20396;-75
2022/04/23 00:23:52;;;;;;;14.48;2.58;;;;;;;;;;5038712;28;20037;-74
2022/04/23 00:26:17;;;;;;;14.60;2.47;;;;;;;;;;5033286;28;20440;-74
2022/04/23 00:28:43;;;;;;;11.68;2.35;;;;;;;;;;5003753;28;20036;-75
2022/04/23 00:31:09;;;;;;;11.18;2.10;;;;;;;;;;5031734;28;20045;-75
2022/04/23 00:33:37;;;;;;;21.90;2.75;;;;;;;;;;5036983;28;20037;-75
2022/04/23 00:36:05;;;;;;;16.63;2.72;;;;;;;;;;5035478;28;20041;-75
2022/04/23 00:38:33;;;;;;;13.45;2.92;;;;;;;;;;5039806;28;20025;-74
2022/04/23 00:40:59;;;;;;;18.10;3.30;;;;;;;;;;5029624;28;20041;-75
2022/04/23 00:43:27;;;;;;;19.58;2.60;;;;;;;;;;5018042;28;20124;-75
2022/04/23 00:45:53;;;;;;;18.80;2.92;;;;;;;;;;5032205;28;20021;-73
2022/04/23 00:48:18;;;;;;;15.60;2.83;;;;;;;;;;5038594;28;20047;-74
2022/04/23 00:50:44;;;;;;;19.30;3.40;;;;;;;;;;5029702;28;20053;-74
2022/04/23 00:53:11;;;;;;;18.20;3.10;;;;;;;;;;5024783;28;20507;-81
2022/04/23 00:55:36;;;;;;;13.50;2.92;;;;;;;;;;5038344;28;20060;-81
2022/04/23 00:58:03;;;;;;;27.92;3.78;;;;;;;;;;5035985;28;21349;-81
2022/04/23 01:00:29;;;;;;;21.00;3.42;;;;;;;;;;5013410;28;20037;-81
2022/04/23 01:02:55;;;;;;;14.80;2.80;;;;;;;;;;5039753;28;20033;-81
2022/04/23 01:05:23;;;;;;;19.00;2.72;;;;;;;;;;5044477;28;20032;-79
2022/04/23 01:07:51;;;;;;;15.38;3.08;;;;;;;;;;5013052;28;20112;-80
2022/04/23 01:10:17;;;;;;;15.15;2.70;;;;;;;;;;5037789;28;20128;-81
2022/04/23 01:12:45;;;;;;;23.35;3.92;;;;;;;;;;5047042;28;20108;-80
2022/04/23 01:15:13;;;;;;;12.68;3.33;;;;;;;;;;5020594;28;20108;-81
2022/04/23 01:17:39;;;;;;;18.50;3.30;;;;;;;;;;5036076;28;20020;-80
2022/04/23 01:20:10;;;;;;;14.63;2.75;;;;;;;;;;5034753;28;20136;-81
2022/04/23 01:22:36;;;;;;;21.65;3.58;;;;;;;;;;5046403;28;20025;-81
2022/04/23 01:25:10;;;;;;;15.38;3.58;;;;;;;;;;5038156;28;20032;-80
2022/04/23 01:27:37;;;;;;;14.07;3.25;;;;;;;;;;5030501;28;20037;-80
2022/04/23 01:30:05;;;;;;;15.02;3.38;;;;;;;;;;5031215;28;20064;-79
2022/04/23 01:32:30;;;;;;;15.70;3.47;;;;;;;;;;5047303;28;20024;-74
2022/04/23 01:34:56;;;;;;;15.23;3.30;;;;;;;;;;5036492;28;20079;-73
2022/04/23 01:37:22;;;;;;;16.05;3.15;;;;;;;;;;5014126;28;20037;-75
2022/04/23 01:39:48;;;;;;;19.58;4.28;;;;;;;;;;5043467;28;20029;-74
2022/04/23 01:42:17;;;;;;;19.20;3.47;;;;;;;;;;5045544;28;20031;-74
2022/04/23 01:44:44;;;;;;;21.08;3.88;;;;;;;;;;5033806;28;20059;-76
2022/04/23 01:47:10;;;;;;;22.63;4.13;;;;;;;;;;5024546;28;20064;-75
2022/04/23 01:49:35;;;;;;;30.95;4.15;;;;;;;;;;5021083;28;20522;-74
2022/04/23 01:52:01;;;;;;;28.00;5.68;;;;;;;;;;5031449;28;20628;-74
2022/04/23 01:54:26;;;;;;;15.85;3.47;;;;;;;;;;5003270;28;20060;-73
2022/04/23 01:56:52;;;;;;;11.57;3.33;;;;;;;;;;5015079;28;20064;-74
2022/04/23 01:59:17;;;;;;;15.73;3.55;;;;;;;;;;5028958;28;20028;-75
2022/04/23 02:01:43;;;;;;;21.20;3.20;;;;;;;;;;5018242;28;20190;-74
2022/04/23 02:04:08;;;;;;;12.02;4.20;;;;;;;;;;5024898;28;20035;-74
2022/04/23 02:06:35;;;;;;;14.05;3.33;;;;;;;;;;5034324;28;20029;-73
2022/04/23 02:09:02;;;;;;;14.30;2.65;;;;;;;;;;5048998;28;21108;-74
2022/04/23 02:11:27;;;;;;;17.63;3.85;;;;;;;;;;5039291;28;20094;-74
2022/04/23 02:13:53;;;;;;;17.58;3.30;;;;;;;;;;4997948;28;20046;-75
2022/04/23 02:16:19;;;;;;;16.30;3.63;;;;;;;;;;5031681;28;20033;-75
2022/04/23 02:18:45;;;;;;;22.25;3.60;;;;;;;;;;5019771;28;20040;-75
2022/04/23 02:21:10;;;;;;;17.25;2.58;;;;;;;;;;5035708;28;20063;-75
2022/04/23 02:23:36;;;;;;;21.20;3.55;;;;;;;;;;5016389;28;20033;-75
2022/04/23 02:26:04;;;;;;;11.95;3.30;;;;;;;;;;5001225;28;20037;-74
2022/04/23 02:28:29;;;;;;;14.32;2.88;;;;;;;;;;5014504;28;20112;-74
2022/04/23 02:30:55;;;;;;;15.63;2.83;;;;;;;;;;5033540;28;20049;-74
2022/04/23 02:33:20;;;;;;;9.10;2.25;;;;;;;;;;5016977;28;20138;-74
2022/04/23 02:35:47;;;;;;;17.48;3.45;;;;;;;;;;5021724;28;20587;-74
2022/04/23 02:38:14;;;;;;;15.23;3.38;;;;;;;;;;5046202;28;20041;-81
2022/04/23 02:40:40;;;;;;;16.63;2.92;;;;;;;;;;5042114;28;20045;-80
2022/04/23 02:43:05;;;;;;;24.10;3.60;;;;;;;;;;5016410;28;20395;-81
2022/04/23 02:45:32;;;;;;;23.02;3.00;;;;;;;;;;5014709;28;20381;-80
2022/04/23 02:47:58;;;;;;;14.98;3.60;;;;;;;;;;5034962;28;20079;-74
2022/04/23 02:50:26;;;;;;;17.40;2.58;;;;;;;;;;5036222;28;20694;-74
2022/04/23 02:52:54;;;;;;;12.70;2.85;;;;;;;;;;5044090;28;20152;-81
2022/04/23 02:55:19;;;;;;;13.75;3.65;;;;;;;;;;5046889;28;20021;-81
2022/04/23 02:57:45;;;;;;;25.45;3.83;;;;;;;;;;5037880;28;20064;-80
2022/04/23 03:00:11;;;;;;;20.00;4.10;;;;;;;;;;5027949;28;20063;-81
2022/04/23 03:02:38;;;;;;;14.88;2.92;;;;;;;;;;5027868;28;20112;-82
2022/04/23 03:05:06;;;;;;;22.38;3.35;;;;;;;;;;5031105;28;20068;-81
2022/04/23 03:07:32;;;;;;;15.80;3.30;;;;;;;;;;5029938;28;20037;-81
2022/04/23 03:09:59;;;;;;;21.58;4.03;;;;;;;;;;5044059;28;20474;-81
2022/04/23 03:12:24;;;;;;;14.00;2.92;;;;;;;;;;5014708;28;20033;-81
2022/04/23 03:14:50;;;;;;;17.98;4.18;;;;;;;;;;5030636;28;20048;-81
2022/04/23 03:17:15;;;;;;;22.65;3.05;;;;;;;;;;5028754;28;20029;-81
2022/04/23 03:19:41;;;;;;;13.25;3.17;;;;;;;;;;5018951;28;20586;-81
2022/04/23 03:22:06;;;;;;;10.52;2.83;;;;;;;;;;4991560;28;20080;-80
2022/04/23 03:24:32;;;;;;;12.80;3.50;;;;;;;;;;5031227;28;20025;-82
2022/04/23 03:26:57;;;;;;;6.97;2.63;;;;;;;;;;5031742;28;20092;-81
2022/04/23 03:29:23;;;;;;;15.40;3.17;;;;;;;;;;4994080;28;21071;-81
2022/04/23 03:31:50;;;;;;;12.32;2.47;;;;;;;;;;5043757;28;20076;-83
2022/04/23 03:34:18;;;;;;;21.33;3.05;;;;;;;;;;5020034;28;20024;-75
2022/04/23 03:36:43;;;;;;;14.60;3.08;;;;;;;;;;5030375;28;20025;-75
2022/04/23 03:39:09;;;;;;;16.13;3.15;;;;;;;;;;5019941;28;20038;-74
2022/04/23 03:41:34;;;;;;;16.73;3.35;;;;;;;;;;5032872;28;20040;-75
2022/04/23 03:44:00;;;;;;;13.82;3.03;;;;;;;;;;5036381;28;20041;-74
2022/04/23 03:46:26;;;;;;;17.85;3.45;;;;;;;;;;5038854;28;20567;-75
2022/04/23 03:48:51;;;;;;;13.40;3.00;;;;;;;;;;5021801;28;20070;-75
2022/04/23 03:51:17;;;;;;;16.00;2.90;;;;;;;;;;5034850;28;20503;-75
2022/04/23 03:53:42;;;;;;;11.23;3.53;;;;;;;;;;5043283;28;20033;-82
2022/04/23 03:56:09;;;;;;;18.42;2.83;;;;;;;;;;5035150;28;20550;-81
2022/04/23 03:58:35;;;;;;;17.10;3.33;;;;;;;;;;5037180;28;20025;-81
2022/04/23 04:01:01;;;;;;;17.00;3.00;;;;;;;;;;5045702;28;20025;-82
2022/04/23 04:03:27;;;;;;;16.77;3.38;;;;;;;;;;5046823;28;20033;-82
2022/04/23 04:05:53;;;;;;;13.60;3.05;;;;;;;;;;5034339;28;20027;-81
2022/04/23 04:08:19;;;;;;;29.85;4.43;;;;;;;;;;5024261;28;20034;-81
2022/04/23 04:10:45;;;;;;;15.70;3.17;;;;;;;;;;5021367;28;20040;-81
2022/04/23 04:13:10;;;;;;;9.15;2.75;;;;;;;;;;5046891;28;20029;-80
2022/04/23 04:15:36;;;;;;;16.10;2.33;;;;;;;;;;5029825;28;20037;-81
2022/04/23 04:18:02;;;;;;;13.27;2.50;;;;;;;;;;5030594;28;20090;-82
2022/04/23 04:20:32;;;;;;;16.63;2.95;;;;;;;;;;5033505;28;20116;-81
2022/04/23 04:22:58;;;;;;;15.57;2.78;;;;;;;;;;5044933;28;20029;-82
2022/04/23 04:25:23;;;;;;;25.05;3.45;;;;;;;;;;5045579;28;20078;-81
2022/04/23 04:27:49;;;;;;;10.00;2.65;;;;;;;;;;5042177;28;20073;-81
2022/04/23 04:30:15;;;;;;;11.82;3.95;;;;;;;;;;5026743;28;20844;-80
2022/04/23 04:32:41;;;;;;;12.68;3.58;;;;;;;;;;5045753;28;20088;-81
2022/04/23 04:35:09;;;;;;;9.88;2.72;;;;;;;;;;5030395;28;20036;-80
2022/04/23 04:37:34;;;;;;;16.55;2.75;;;;;;;;;;5048512;28;20128;-81
2022/04/23 04:40:00;;;;;;;21.13;4.10;;;;;;;;;;5046848;28;20162;-81
2022/04/23 04:42:27;;;;;;;11.38;3.05;;;;;;;;;;5019537;28;20036;-81
2022/04/23 04:44:52;;;;;;;17.08;3.78;;;;;;;;;;5016464;28;20115;-82
2022/04/23 04:47:18;;;;;;;17.00;3.22;;;;;;;;;;5013727;28;20533;-81
2022/04/23 04:49:43;;;;;;;30.23;3.50;;;;;;;;;;5029867;28;20047;-82
2022/04/23 04:52:09;;;;;;;14.25;3.75;;;;;;;;;;5031434;28;20082;-82
2022/04/23 04:54:35;;;;;;;19.35;3.95;;;;;;;;;;5018219;28;20037;-82
2022/04/23 04:57:02;;;;;;;20.92;3.85;;;;;;;;;;5036354;28;20041;-81
2022/04/23 04:59:31;;;;;;;13.95;2.97;;;;;;;;;;5046803;28;20025;-81
2022/04/23 05:01:58;;;;;;;16.20;3.65;;;;;;;;;;5045097;28;20028;-82
2022/04/23 05:04:24;;;;;;;11.45;3.10;;;;;;;;;;5033535;28;20136;-82
2022/04/23 05:06:49;;;;;;;12.90;3.03;;;;;;;;;;5043616;28;20555;-81
2022/04/23 05:09:15;;;;;;;27.42;3.67;;;;;;;;;;5034112;28;20025;-82
2022/04/23 05:11:40;;;;;;;25.33;4.40;;;;;;;;;;4999559;28;20434;-82
2022/04/23 05:14:06;;;;;;;20.30;3.75;;;;;;;;;;5046511;28;20072;-82
2022/04/23 05:16:31;;;;;;;16.98;3.38;;;;;;;;;;5029315;28;20780;-82
2022/04/23 05:18:57;;;;;;;14.57;3.35;;;;;;;;;;5038839;28;20037;-81
2022/04/23 05:21:22;;;;;;;33.25;4.20;;;;;;;;;;5032321;28;20087;-82
2022/04/23 05:23:48;;;;;;;25.13;3.80;;;;;;;;;;5046239;28;20033;-82
2022/04/23 05:26:13;;;;;;;28.05;4.00;;;;;;;;;;5015905;28;20032;-81
2022/04/23 05:28:41;;;;;;;12.57;3.78;;;;;;;;;;5045763;28;20060;-81
2022/04/23 05:31:07;;;;;;;28.23;4.15;;;;;;;;;;5034666;28;20110;-82
2022/04/23 05:33:33;;;;;;;13.32;3.75;;;;;;;;;;5047028;28;20043;-82
2022/04/23 05:35:59;;;;;;;21.10;4.10;;;;;;;;;;5012176;28;20037;-81
2022/04/23 05:38:24;;;;;;;13.93;4.18;;;;;;;;;;5036878;28;20052;-81
2022/04/23 05:40:50;;;;;;;16.75;4.07;;;;;;;;;;5037621;28;20043;-81
2022/04/23 05:43:16;;;;;;;14.80;3.58;;;;;;;;;;5029223;28;20040;-80
2022/04/23 05:45:43;;;;;;;17.10;4.80;;;;;;;;;;5015994;28;20395;-82
2022/04/23 05:48:09;;;;;;;21.67;4.22;;;;;;;;;;5016868;28;20120;-82
2022/04/23 05:50:34;;;;;;;16.30;5.55;;;;;;;;;;5029170;28;20132;-81
2022/04/23 05:53:00;;;;;;;22.25;4.43;;;;;;;;;;5020416;28;20065;-81
2022/04/23 05:55:25;;;;;;;15.80;4.78;;;;;;;;;;5020543;28;20029;-82
2022/04/23 05:57:50;;;;;;;14.45;4.35;;;;;;;;;;4999919;28;20036;-82
2022/04/23 06:00:17;;;;;;;14.18;4.65;;;;;;;;;;5032079;28;20428;-82
2022/04/23 06:02:42;;;;;;;20.90;4.68;;;;;;;;;;5032848;28;20039;-75
2022/04/23 06:05:08;;;;;;;21.90;5.25;;;;;;;;;;5045090;28;20495;-75
2022/04/23 06:07:34;;;;;;;29.83;4.55;;;;;;;;;;5009396;28;20025;-75
2022/04/23 06:10:00;;;;;;;27.52;6.28;;;;;;;;;;5032114;28;20037;-75
2022/04/23 06:12:26;;;;;;;20.00;4.72;;;;;;;;;;5036879;28;20071;-75
2022/04/23 06:14:51;;;;;;;20.63;4.72;;;;;;;;;;5029282;28;20052;-74
2022/04/23 06:17:26;;;;;;;37.13;5.50;;;;;;;;;;5035983;28;20021;-74
2022/04/23 06:19:52;;;;;;;19.13;4.47;;;;;;;;;;5019539;28;20007;-74
2022/04/23 06:22:19;;;;;;;17.75;4.50;;;;;;;;;;5019997;28;20055;-75
2022/04/23 06:24:45;;;;;;;20.40;5.38;;;;;;;;;;5022576;28;20445;-75
2022/04/23 06:27:10;;;;;;;24.67;5.38;;;;;;;;;;5044511;28;20033;-75
2022/04/23 06:29:36;;;;;;;27.02;4.63;;;;;;;;;;5033287;28;20131;-75
2022/04/23 06:32:03;;;;;;;16.35;4.75;;;;;;;;;;5037975;28;20078;-75
2022/04/23 06:34:28;;;;;;;28.55;5.38;;;;;;;;;;5039402;28;20612;-81
2022/04/23 06:36:54;;;;;;;26.38;5.05;;;;;;;;;;5038781;28;20032;-81
2022/04/23 06:39:19;;;;;;;21.02;4.78;;;;;;;;;;5029472;28;20025;-80
2022/04/23 06:41:45;;;;;;;22.23;4.72;;;;;;;;;;5040919;28;20064;-81
2022/04/23 06:44:10;;;;;;;15.25;4.22;;;;;;;;;;5042799;28;20039;-82
2022/04/23 06:46:36;;;;;;;21.02;4.78;;;;;;;;;;5042449;28;20033;-82
2022/04/23 06:49:05;;;;;;;28.15;4.63;;;;;;;;;;5027797;28;20523;-81
2022/04/23 06:51:31;;;;;;;13.85;4.53;;;;;;;;;;5039718;28;20025;-80
2022/04/23 06:53:57;;;;;;;24.25;4.65;;;;;;;;;;5035047;28;20028;-81
2022/04/23 06:56:22;;;;;;;20.58;4.32;;;;;;;;;;5035286;28;20458;-81
2022/04/23 06:58:48;;;;;;;21.73;4.22;;;;;;;;;;5029550;28;20040;-81
2022/04/23 07:01:15;;;;;;;16.90;3.78;;;;;;;;;;5032858;28;20048;-81
2022/04/23 07:03:41;;;;;;;17.83;4.15;;;;;;;;;;5027321;28;20036;-81
2022/04/23 07:06:06;;;;;;;24.83;5.35;;;;;;;;;;5023596;28;20037;-80
2022/04/23 07:08:32;;;;;;;24.70;5.13;;;;;;;;;;5035429;28;20039;-81
2022/04/23 07:10:58;;;;;;;28.20;5.22;;;;;;;;;;5043753;28;20041;-81
2022/04/23 07:13:23;;;;;;;16.92;4.53;;;;;;;;;;5033890;28;20471;-81
2022/04/23 07:15:49;;;;;;;27.75;4.72;;;;;;;;;;5031682;28;20605;-81
2022/04/23 07:18:14;;;;;;;20.83;5.07;;;;;;;;;;5029500;28;20029;-81
2022/04/23 07:20:40;;;;;;;23.85;4.80;;;;;;;;;;5035731;28;20039;-80
2022/04/23 07:25:50;;;;;;;22.50;4.55;;;;;;;;;;5033758;28;20597;-81
2022/04/23 07:28:16;;;;;;;22.70;4.45;;;;;;;;;;5030955;28;20040;-81
2022/04/23 07:30:42;;;;;;;35.85;5.82;;;;;;;;;;5028627;28;20150;-80
2022/04/23 07:33:08;;;;;;;23.95;5.25;;;;;;;;;;5034330;28;20028;-79
2022/04/23 07:38:20;;;;;;;22.73;4.93;;;;;;;;;;5023562;28;20167;-80
2022/04/23 07:40:50;;;;;;;24.65;4.85;;;;;;;;;;5046033;28;20503;-81
2022/04/23 07:43:16;;;;;;;26.20;5.20;;;;;;;;;;5050719;28;20048;-80
2022/04/23 07:45:44;;;;;;;30.83;5.68;;;;;;;;;;5043186;28;20032;-81
2022/04/23 07:48:11;;;;;;;26.98;4.90;;;;;;;;;;5039224;28;20029;-81
2022/04/23 07:50:39;;;;;;;30.25;5.07;;;;;;;;;;5034454;28;20024;-80
2022/04/23 07:53:05;;;;;;;27.27;5.75;;;;;;;;;;5041243;28;20028;-81
2022/04/23 07:55:36;;;;;;;28.73;5.60;;;;;;;;;;5042103;28;20025;-80
2022/04/23 07:58:06;;;;;;;27.02;4.97;;;;;;;;;;5037943;28;20033;-79
2022/04/23 08:00:34;;;;;;;23.77;4.82;;;;;;;;;;5016859;28;20056;-81
2022/04/23 08:03:02;;;;;;;22.17;6.90;;;;;;;;;;5050617;28;20502;-75
2022/04/23 08:05:28;;;;;;;22.73;4.38;;;;;;;;;;5025458;28;20033;-74
2022/04/23 08:07:54;;;;;;;30.33;5.10;;;;;;;;;;5046881;28;20021;-75
2022/04/23 08:10:19;;;;;;;24.83;5.10;;;;;;;;;;5038058;28;20035;-75
2022/04/23 08:12:45;;;;;;;24.27;4.53;;;;;;;;;;5042587;28;20418;-75
2022/04/23 08:15:12;;;;;;;18.25;4.72;;;;;;;;;;5035282;28;20028;-75
2022/04/23 08:17:38;;;;;;;31.17;4.63;;;;;;;;;;5039124;28;20578;-74
2022/04/23 08:20:05;;;;;;;29.08;4.95;;;;;;;;;;5041848;28;20100;-75
2022/04/23 08:22:30;;;;;;;19.45;5.32;;;;;;;;;;5049857;28;20387;-75
2022/04/23 08:24:56;;;;;;;18.90;4.50;;;;;;;;;;5019236;28;20028;-75
2022/04/23 08:27:22;;;;;;;26.17;4.85;;;;;;;;;;5034902;28;20449;-76
2022/04/23 08:32:31;;;;;;;27.73;4.97;;;;;;;;;;5010069;28;20037;-81
2022/04/23 08:34:57;;;;;;;19.83;4.38;;;;;;;;;;4991502;28;20034;-81
2022/04/23 08:37:22;;;;;;;25.17;4.68;;;;;;;;;;5008857;28;20407;-81
2022/04/23 08:39:48;;;;;;;29.48;5.88;;;;;;;;;;4977169;28;20184;-81
2022/04/23 08:42:16;;;;;;;22.58;5.55;;;;;;;;;;5008965;28;20036;-80
2022/04/23 08:44:42;;;;;;;31.63;5.35;;;;;;;;;;5007209;28;20022;-80
2022/04/23 08:47:10;;;;;;;24.08;5.30;;;;;;;;;;4991512;28;20121;-80
2022/04/23 08:49:40;;;;;;;33.63;5.38;;;;;;;;;;5008609;28;20460;-81
2022/04/23 08:52:11;;;;;;;22.75;5.20;;;;;;;;;;5005301;28;20038;-80
2022/04/23 08:54:37;;;;;;;33.05;4.65;;;;;;;;;;5001476;28;20865;-80
2022/04/23 08:57:03;;;;;;;27.15;5.38;;;;;;;;;;5005959;28;20463;-80
2022/04/23 08:59:29;;;;;;;32.25;5.13;;;;;;;;;;5009536;28;20021;-80
2022/04/23 09:01:55;;;;;;;20.05;4.68;;;;;;;;;;5005643;28;20096;-79
2022/04/23 09:04:21;;;;;;;26.15;5.85;;;;;;;;;;5001622;28;20038;-74
2022/04/23 09:06:48;;;;;;;21.10;4.72;;;;;;;;;;5004515;28;20600;-74
2022/04/23 09:09:21;;;;;;;35.30;5.80;;;;;;;;;;5004589;28;20077;-74
2022/04/23 09:11:57;;;;;;;37.90;6.47;;;;;;;;;;5008637;28;20418;-74
2022/04/23 09:14:24;;;;;;;22.90;5.55;;;;;;;;;;5004026;28;20026;-74
2022/04/23 09:25:11;;;;;;;36.97;5.93;;;;;;;;;;5002892;28;20095;-74
2022/04/23 09:27:38;;;;;;;23.00;5.07;;;;;;;;;;5007120;28;20736;-81
2022/04/23 09:30:06;;;;;;;29.70;5.57;;;;;;;;;;4996630;28;20061;-81
2022/04/23 09:32:32;;;;;;;30.60;5.72;;;;;;;;;;5026485;28;20056;-81
2022/04/23 09:35:07;;;;;;;38.90;4.88;;;;;;;;;;5007094;28;20390;-80
2022/04/23 09:40:19;;;;;;;36.70;5.55;;;;;;;;;;5028366;28;20067;-75
2022/04/23 09:43:02;;;;;;;25.77;5.15;;;;;;;;;;5032438;28;20025;-75
2022/04/23 09:45:29;;;;;;;;;;;;;;;;;;5024800;28;20030;-75
2022/04/23 09:47:56;;;;;;;32.22;5.25;;;;;;;;;;5026975;28;19917;-75
2022/04/23 09:50:22;;;;;;;37.42;5.70;;;;;;;;;;5025602;28;20030;-75
2022/04/23 09:52:49;;;;;;;21.25;5.50;;;;;;;;;;5006584;28;20040;-75
2022/04/23 09:55:17;;;;;;;24.30;5.10;;;;;;;;;;5027230;28;20456;-77
2022/04/23 09:57:45;;;;;;;19.27;4.53;;;;;;;;;;5018940;28;20030;-74
2022/04/23 10:00:11;;;;;;;30.98;5.00;;;;;;;;;;5012827;28;20064;-74
2022/04/23 10:02:39;;;;;;;26.42;4.90;;;;;;;;;;5025651;28;20040;-75
2022/04/23 10:05:05;;;;;;;20.63;4.70;;;;;;;;;;5025703;28;20039;-75
2022/04/23 10:07:34;;;;;;;37.08;6.15;;;;;;;;;;5028783;28;20116;-80
2022/04/23 10:10:03;;;;;;;21.92;4.85;;;;;;;;;;5028889;28;20033;-75
2022/04/23 10:12:33;;;;;;;23.15;4.60;;;;;;;;;;5045637;28;20028;-73
2022/04/23 10:15:00;;;;;;;24.55;4.32;;;;;;;;;;5032224;28;20116;-74
2022/04/23 10:17:28;;;;;;;173.27;15.32;;;;;;;;;;5026897;28;20033;-76
2022/04/23 10:19:54;;;;;;;172.80;15.98;;;;;;;;;;5028595;28;20044;-74
2022/04/23 10:22:28;;;;;;;20.85;4.43;;;;;;;;;;5033395;28;20052;-75
2022/04/23 10:25:06;;;;;;;28.27;4.68;;;;;;;;;;5030253;28;20017;-74
2022/04/23 10:27:33;;;;;;;21.77;3.58;;;;;;;;;;5028957;28;20024;-74
2022/04/23 10:30:04;;;;;;;241.70;23.23;;;;;;;;;;5028730;28;20136;-73
2022/04/23 10:32:40;;;;;;;26.60;4.85;;;;;;;;;;5014493;28;20025;-79
2022/04/23 10:35:17;;;;;;;16.30;3.90;;;;;;;;;;5024241;28;20396;-80
2022/04/23 10:37:44;;;;;;;20.05;4.97;;;;;;;;;;5029061;28;20022;-80
2022/04/23 10:40:21;;;;;;;23.42;4.47;;;;;;;;;;5032487;28;20017;-79
2022/04/23 10:43:06;;;;;;;58.42;8.68;;;;;;;;;;5029127;28;20033;-81
2022/04/23 10:45:37;;;;;;;22.50;4.35;;;;;;;;;;5033188;28;20029;-78
2022/04/23 10:48:22;;;;;;;113.03;14.27;;;;;;;;;;5027385;28;20041;-81
2022/04/23 10:51:19;;;;;;;21.30;4.60;;;;;;;;;;5022143;28;20030;-79
2022/04/23 10:53:46;;;;;;;16.33;3.88;;;;;;;;;;5028004;28;20021;-80
2022/04/23 10:56:21;;;;;;;23.08;4.90;;;;;;;;;;5028073;28;20021;-80
2022/04/23 10:58:47;;;;;;;39.22;5.70;;;;;;;;;;5027754;28;20100;-79
2022/04/23 11:01:29;;;;;;;45.00;7.20;;;;;;;;;;5026505;28;20073;-80
2022/04/23 11:03:54;;;;;;;27.93;4.33;;;;;;;;;;5026406;28;20012;-80
2022/04/23 11:12:23;;;;;;;19.70;4.22;;;;;;;;;;5028524;28;20044;-74
2022/04/23 11:14:58;;;;;;;20.60;5.30;;;;;;;;;;5015720;28;20071;-74
2022/04/23 11:17:53;;;;;;;18.30;4.53;;;;;;;;;;5018982;28;20057;-74
2022/04/23 11:20:30;;;;;;;16.38;4.78;;;;;;;;;;5038312;28;20036;-74
2022/04/23 11:22:58;;;;;;;31.95;6.25;;;;;;;;;;5018625;28;20043;-73
2022/04/23 11:25:24;;;;;;;19.65;4.93;;;;;;;;;;5021790;28;20157;-74
2022/04/23 11:27:50;;;;;;;131.32;12.60;;;;;;;;;;5025124;28;20128;-74
2022/04/23 11:30:27;;;;;;;21.17;4.70;;;;;;;;;;5025472;28;20408;-73
2022/04/23 11:32:52;;;;;;;17.95;3.78;;;;;;;;;;5027554;28;20048;-73
2022/04/23 11:35:29;;;;;;;36.33;6.95;;;;;;;;;;5024147;28;21068;-74
2022/04/23 11:37:55;;;;;;;20.95;4.65;;;;;;;;;;5026417;28;20032;-75
2022/04/23 11:40:24;;;;;;;28.45;4.40;;;;;;;;;;5009477;28;20430;-81
2022/04/23 11:42:49;;;;;;;37.22;5.60;;;;;;;;;;5030014;28;20033;-78
2022/04/23 11:45:17;;;;;;;27.58;3.85;;;;;;;;;;5029317;28;20037;-73
2022/04/23 11:47:43;;;;;;;34.05;5.35;;;;;;;;;;5029798;28;20048;-73
2022/04/23 11:50:18;;;;;;;21.35;3.95;;;;;;;;;;5026194;28;20033;-77
2022/04/23 11:52:55;;;;;;;33.90;6.03;;;;;;;;;;5026187;28;20033;-73
2022/04/23 11:55:22;;;;;;;77.00;12.70;;;;;;;;;;5028884;28;20025;-73
2022/04/23 11:57:59;;;;;;;19.10;4.30;;;;;;;;;;5031143;28;20427;-73
2022/04/23 12:00:26;;;;;;;96.40;10.75;;;;;;;;;;5032543;28;20032;-73
2022/04/23 12:02:53;;;;;;;24.77;5.03;;;;;;;;;;5033890;28;20061;-73
2022/04/23 12:05:23;;;;;;;66.40;11.10;;;;;;;;;;5028385;28;20140;-73
2022/04/23 12:07:49;;;;;;;20.70;4.10;;;;;;;;;;5028853;28;20088;-74
2022/04/23 12:10:15;;;;;;;29.52;4.82;;;;;;;;;;5032558;28;20123;-74
2022/04/23 12:12:42;;;;;;;26.02;4.47;;;;;;;;;;5011675;28;20031;-74
2022/04/23 12:15:14;;;;;;;30.52;4.80;;;;;;;;;;4999961;28;20139;-80
2022/04/23 12:17:47;;;;;;;225.85;22.75;;;;;;;;;;5024445;28;20151;-74
2022/04/23 12:20:15;;;;;;;22.13;4.88;;;;;;;;;;5020207;28;20048;-73
2022/04/23 12:22:54;;;;;;;32.03;4.93;;;;;;;;;;5030061;28;20096;-79
2022/04/23 12:25:21;;;;;;;14.05;3.88;;;;;;;;;;5032213;28;20026;-81
2022/04/23 12:42:07;;;;;;;19.15;4.65;;;;;;;;;;5029534;28;20041;-73
2022/04/23 12:44:52;;;;;;;471.42;51.30;;;;;;;;;;5028313;28;20047;-76
2022/04/23 12:47:44;;;;;;;70.25;8.20;;;;;;;;;;5028859;28;20108;-73
2022/04/23 12:50:10;;;;;;;20.40;4.65;;;;;;;;;;5018465;28;20045;-74
2022/04/23 12:52:45;;;;;;;13.88;3.63;;;;;;;;;;5031607;28;20393;-75
2022/04/23 12:55:18;;;;;;;22.48;4.70;;;;;;;;;;5033361;28;20029;-75
2022/04/23 12:57:48;;;;;;;24.67;4.00;;;;;;;;;;5005416;28;20060;-75
2022/04/23 13:00:18;;;;;;;21.92;3.58;;;;;;;;;;5022511;28;20018;-74
2022/04/23 13:02:47;;;;;;;16.05;3.85;;;;;;;;;;5012142;28;20026;-78
2022/04/23 13:05:13;;;;;;;28.15;4.28;;;;;;;;;;5031098;28;20037;-79
2022/04/23 13:10:23;;;;;;;18.85;4.10;;;;;;;;;;5024461;28;20037;-80
2022/04/23 13:12:49;;;;;;;23.38;5.03;;;;;;;;;;5022130;28;20033;-80
2022/04/23 13:15:18;;;;;;;21.63;4.47;;;;;;;;;;5024651;28;20479;-74
2022/04/23 13:17:46;;;;;;;18.77;3.78;;;;;;;;;;4997264;28;20033;-75
2022/04/23 13:20:13;;;;;;;26.13;4.72;;;;;;;;;;5022577;28;20026;-74
2022/04/23 13:22:41;;;;;;;16.33;3.42;;;;;;;;;;5027645;28;20029;-79
2022/04/23 13:25:07;;;;;;;17.60;3.63;;;;;;;;;;5027590;28;20052;-78
2022/04/23 13:27:33;;;;;;;18.13;3.78;;;;;;;;;;5028294;28;20025;-79
2022/04/23 13:29:59;;;;;;;17.65;4.60;;;;;;;;;;5013093;28;20059;-79
2022/04/23 13:32:25;;;;;;;22.98;4.10;;;;;;;;;;5008542;28;20558;-79
2022/04/23 13:34:50;;;;;;;31.58;4.70;;;;;;;;;;5012122;28;20037;-80
2022/04/23 13:37:18;;;;;;;23.40;5.05;;;;;;;;;;5012472;28;20084;-78
2022/04/23 13:39:44;;;;;;;21.65;4.55;;;;;;;;;;5003583;28;20064;-80
2022/04/23 13:42:10;;;;;;;20.30;4.80;;;;;;;;;;5011064;28;20065;-78
2022/04/23 13:44:36;;;;;;;20.58;4.30;;;;;;;;;;5008382;28;20467;-80
2022/04/23 13:47:02;;;;;;;27.45;5.13;;;;;;;;;;5006647;28;20061;-79
2022/04/23 13:49:28;;;;;;;19.42;4.32;;;;;;;;;;5026371;28;20040;-74
2022/04/23 13:51:54;;;;;;;21.98;4.50;;;;;;;;;;5023572;28;20029;-75
2022/04/23 13:54:20;;;;;;;19.38;4.38;;;;;;;;;;5021655;28;20083;-78
2022/04/23 13:56:49;;;;;;;15.23;3.47;;;;;;;;;;5018697;28;20437;-74
2022/04/23 13:59:15;;;;;;;25.25;4.60;;;;;;;;;;5019756;28;20025;-75
2022/04/23 14:01:41;;;;;;;23.85;4.93;;;;;;;;;;5033941;28;20388;-74
2022/04/23 14:12:18;;;;;;;19.67;3.78;;;;;;;;;;5027523;28;20057;-79
2022/04/23 14:14:44;;;;;;;21.42;4.40;;;;;;;;;;5020684;28;20840;-80
2022/04/23 14:17:09;;;;;;;15.60;3.63;;;;;;;;;;5020882;28;20095;-78
2022/04/23 14:19:36;;;;;;;14.73;3.83;;;;;;;;;;5018370;28;20025;-79
2022/04/23 14:22:05;;;;;;;12.25;4.20;;;;;;;;;;5032551;28;20061;-79
2022/04/23 14:24:31;;;;;;;13.85;3.55;;;;;;;;;;5034872;28;20026;-79
2022/04/23 14:26:57;;;;;;;18.42;3.83;;;;;;;;;;5027415;28;20048;-80
2022/04/23 14:29:23;;;;;;;12.70;3.47;;;;;;;;;;5013407;28;20516;-80
2022/04/23 14:31:48;;;;;;;18.08;4.65;;;;;;;;;;5021531;28;20086;-80
2022/04/23 14:34:14;;;;;;;16.83;4.43;;;;;;;;;;5039022;28;20552;-74
2022/04/23 14:36:39;;;;;;;15.55;3.72;;;;;;;;;;5034636;28;20025;-75
2022/04/23 14:39:06;;;;;;;17.33;4.25;;;;;;;;;;5031052;28;20542;-74
2022/04/23 14:41:31;;;;;;;20.50;4.60;;;;;;;;;;5045525;28;20085;-75
2022/04/23 14:43:57;;;;;;;15.02;4.32;;;;;;;;;;4999646;28;20120;-75
2022/04/23 14:46:22;;;;;;;12.90;3.63;;;;;;;;;;5027262;28;20036;-74
2022/04/23 14:48:48;;;;;;;17.85;3.63;;;;;;;;;;5032280;28;20044;-75
2022/04/23 14:53:57;;;;;;;13.02;4.10;;;;;;;;;;5047673;28;20040;-74
2022/04/23 14:56:23;;;;;;;19.42;4.10;;;;;;;;;;5021603;28;20391;-75
2022/04/23 14:58:48;;;;;;;17.17;4.45;;;;;;;;;;5019035;28;20048;-74
2022/04/23 15:01:14;;;;;;;20.58;4.20;;;;;;;;;;5038504;28;20029;-75
2022/04/23 15:03:43;;;;;;;17.83;4.15;;;;;;;;;;5047892;28;20083;-79
2022/04/23 15:06:09;;;;;;;21.40;4.28;;;;;;;;;;5037835;28;20029;-79
2022/04/23 15:08:35;;;;;;;23.65;3.80;;;;;;;;;;5047984;28;20028;-80
2022/04/23 15:11:02;;;;;;;15.30;4.78;;;;;;;;;;5044787;28;20415;-80
2022/04/23 15:13:28;;;;;;;22.38;3.50;;;;;;;;;;5036858;28;20041;-78
2022/04/23 15:15:56;;;;;;;11.38;4.53;;;;;;;;;;5019699;28;20029;-80
2022/04/23 15:18:23;;;;;;;22.17;4.03;;;;;;;;;;5022898;28;20036;-81
2022/04/23 15:20:48;;;;;;;26.33;4.88;;;;;;;;;;5032378;28;20041;-78
2022/04/23 15:23:14;;;;;;;15.93;4.00;;;;;;;;;;5020559;28;20118;-79
2022/04/23 15:25:41;;;;;;;13.25;4.30;;;;;;;;;;5032251;28;20051;-78